createdAt,value
2023-04-25T00:02:32.869Z,100.00
2023-04-25T00:07:38.967Z,100.00
2023-04-25T00:12:43.232Z,100.00
2023-04-25T00:17:47.667Z,100.00
2023-04-25T00:22:53.784Z,100.00
2023-04-25T00:27:57.896Z,100.00
2023-04-25T00:33:01.831Z,100.00
2023-04-25T00:38:07.458Z,100.00
2023-04-25T00:43:11.703Z,100.00
2023-04-25T00:48:15.997Z,100.00
2023-04-25T00:53:21.592Z,100.00
2023-04-25T00:58:25.592Z,100.00
2023-04-25T01:03:31.034Z,100.00
2023-04-25T01:08:37.500Z,100.00
2023-04-25T01:13:41.588Z,100.00
2023-04-25T01:18:45.822Z,100.00
2023-04-25T01:23:52.347Z,100.00
2023-04-25T01:28:57.877Z,100.00
2023-04-25T01:34:02.684Z,100.00
2023-04-25T01:39:08.817Z,100.00
2023-04-25T01:44:12.887Z,100.00
2023-04-25T01:49:17.093Z,100.00
2023-04-25T01:54:23.538Z,100.00
2023-04-25T01:59:28.005Z,100.00
2023-04-25T02:04:44.891Z,100.00
2023-04-25T02:09:51.989Z,100.00
2023-04-25T02:14:57.381Z,100.00
2023-04-25T02:20:14.916Z,100.00
2023-04-25T02:25:20.994Z,100.00
2023-04-25T02:30:24.879Z,100.00
2023-04-25T02:35:28.803Z,100.00
2023-04-25T02:40:34.096Z,100.00
2023-04-25T02:45:38.791Z,100.00
2023-04-25T02:50:43.433Z,100.00
2023-04-25T02:55:48.629Z,100.00
2023-04-25T03:00:52.662Z,100.00
2023-04-25T03:05:56.985Z,100.00
2023-04-25T03:11:08.533Z,100.00
2023-04-25T03:16:13.074Z,100.00
2023-04-25T03:21:16.998Z,100.00
2023-04-25T03:26:22.506Z,100.00
2023-04-25T03:31:26.563Z,100.00
2023-04-25T03:36:30.745Z,100.00
2023-04-25T03:41:36.301Z,100.00
2023-04-25T03:46:46.020Z,100.00
2023-04-25T03:51:50.354Z,100.00
2023-04-25T03:56:55.841Z,100.00
2023-04-25T04:02:03.239Z,100.00
2023-04-25T04:07:09.081Z,100.00
2023-04-25T04:12:16.850Z,100.00
2023-04-25T04:17:21.839Z,100.00
2023-04-25T04:22:26.673Z,100.00
2023-04-25T04:27:35.856Z,100.00
2023-04-25T04:33:02.762Z,100.00
2023-04-25T04:38:07.314Z,100.00
2023-04-25T04:43:15.849Z,100.00
2023-04-25T04:48:41.125Z,100.00
2023-04-25T04:54:08.147Z,100.00
2023-04-25T04:59:31.681Z,100.00
2023-04-25T05:04:43.775Z,100.00
2023-04-25T05:10:07.846Z,100.00
2023-04-25T05:15:39.619Z,100.00
2023-04-25T05:21:04.066Z,100.00
2023-04-25T05:26:43.700Z,100.00
2023-04-25T05:32:09.491Z,100.00
2023-04-25T05:37:13.511Z,100.00
2023-04-25T05:42:29.424Z,100.00
2023-04-25T05:48:01.103Z,100.00
2023-04-25T05:53:31.544Z,100.00
2023-04-25T05:58:38.409Z,100.00
2023-04-25T06:03:44.447Z,100.00
2023-04-25T06:08:48.676Z,100.00
2023-04-25T06:13:53.055Z,100.00
2023-04-25T06:18:58.575Z,100.00
2023-04-25T06:24:03.573Z,100.00
2023-04-25T06:29:08.272Z,100.00
2023-04-25T06:34:13.800Z,100.00
2023-04-25T06:39:21.088Z,100.00
2023-04-25T06:44:27.381Z,100.00
2023-04-25T06:49:32.764Z,100.00
2023-04-25T06:54:37.284Z,100.00
2023-04-25T06:59:53.543Z,100.00
2023-04-25T07:05:01.005Z,100.00
2023-04-25T07:10:06.425Z,100.00
2023-04-25T07:15:12.579Z,100.00
2023-04-25T07:20:21.140Z,100.00
2023-04-25T07:25:25.986Z,100.00
2023-04-25T07:30:30.931Z,100.00
2023-04-25T07:35:36.686Z,100.00
2023-04-25T07:40:40.557Z,100.00
2023-04-25T07:45:47.006Z,100.00
2023-04-25T07:50:54.063Z,100.00
2023-04-25T07:55:58.699Z,100.00
2023-04-25T08:01:03.350Z,100.00
2023-04-25T08:06:14.906Z,99.49
2023-04-25T08:11:34.510Z,99.16
2023-04-25T08:16:38.819Z,100.00
2023-04-25T08:21:44.902Z,98.69
2023-04-25T08:26:53.861Z,88.97
2023-04-25T08:32:00.357Z,87.82
2023-04-25T08:37:06.908Z,89.69
2023-04-25T08:42:25.608Z,92.83
2023-04-25T08:47:29.948Z,89.99
2023-04-25T08:52:39.024Z,89.58
2023-04-25T08:57:44.432Z,83.98
2023-04-25T09:02:49.369Z,83.48
2023-04-25T09:07:55.314Z,83.97
2023-04-25T09:13:07.009Z,83.17
2023-04-25T09:18:30.753Z,85.53
2023-04-25T09:23:43.747Z,83.61
2023-04-25T09:28:49.043Z,82.01
2023-04-25T09:34:01.560Z,83.57
2023-04-25T09:39:16.212Z,83.57
2023-04-25T09:44:26.506Z,81.04
2023-04-25T09:49:32.476Z,80.77
2023-04-25T09:54:50.318Z,80.29
2023-04-25T10:00:04.437Z,79.89
2023-04-25T10:05:18.741Z,80.57
2023-04-25T10:10:26.808Z,73.33
2023-04-25T10:15:31.009Z,70.60
2023-04-25T10:20:35.427Z,66.83
2023-04-25T10:25:41.556Z,67.13
2023-04-25T10:30:59.664Z,67.88
2023-04-25T10:36:11.995Z,65.79
2023-04-25T10:41:19.692Z,62.53
2023-04-25T10:46:25.637Z,64.02
2023-04-25T10:51:40.072Z,63.48
2023-04-25T10:56:56.453Z,62.70
2023-04-25T11:02:00.646Z,62.77
2023-04-25T11:07:13.583Z,63.69
2023-04-25T11:12:19.026Z,66.35
2023-04-25T11:17:23.078Z,65.24
2023-04-25T11:22:28.238Z,65.47
2023-04-25T11:27:34.160Z,68.05
2023-04-25T11:32:38.481Z,65.47
2023-04-25T11:37:43.157Z,65.91
2023-04-25T11:42:49.533Z,65.37
2023-04-25T11:47:53.634Z,65.18
2023-04-25T11:52:59.164Z,64.11
2023-04-25T11:58:06.618Z,64.35
2023-04-25T12:03:11.894Z,66.44
2023-04-25T12:08:17.558Z,67.28
2023-04-25T12:13:27.690Z,66.52
2023-04-25T12:18:31.647Z,66.84
2023-04-25T12:23:35.820Z,67.00
2023-04-25T12:28:41.542Z,66.24
2023-04-25T12:33:48.819Z,65.92
2023-04-25T12:38:53.224Z,65.26
2023-04-25T12:43:58.905Z,66.85
2023-04-25T12:49:17.246Z,65.45
2023-04-25T12:54:22.334Z,67.12
2023-04-25T12:59:27.890Z,68.46
2023-04-25T13:04:32.264Z,70.11
2023-04-25T13:09:36.478Z,69.80
2023-04-25T13:14:41.909Z,69.71
2023-04-25T13:19:46.220Z,69.30
2023-04-25T13:24:50.462Z,68.07
2023-04-25T13:29:55.939Z,69.44
2023-04-25T13:34:59.750Z,69.04
2023-04-25T13:40:06.022Z,72.09
2023-04-25T13:45:11.983Z,69.23
2023-04-25T13:50:17.047Z,70.36
2023-04-25T13:55:21.354Z,69.84
2023-04-25T14:00:26.824Z,69.11
2023-04-25T14:05:30.656Z,68.69
2023-04-25T14:10:34.511Z,68.13
2023-04-25T14:15:39.810Z,69.42
2023-04-25T14:20:43.677Z,69.57
2023-04-25T14:25:48.628Z,71.00
2023-04-25T14:30:54.506Z,70.28
2023-04-25T14:35:59.157Z,70.17
2023-04-25T14:41:02.975Z,69.70
2023-04-25T14:46:08.655Z,72.36
2023-04-25T14:51:12.768Z,72.02
2023-04-25T14:56:16.949Z,72.50
2023-04-25T15:01:22.949Z,70.09
2023-04-25T15:06:29.667Z,71.09
2023-04-25T15:11:33.810Z,69.82
2023-04-25T15:16:39.627Z,68.32
2023-04-25T15:21:43.600Z,67.98
2023-04-25T15:26:47.522Z,67.68
2023-04-25T15:31:52.913Z,66.67
2023-04-25T15:36:58.674Z,67.56
2023-04-25T15:42:03.527Z,68.13
2023-04-25T15:47:09.101Z,66.76
2023-04-25T15:52:13.252Z,66.34
2023-04-25T15:57:17.275Z,65.38
2023-04-25T16:02:23.225Z,67.67
2023-04-25T16:07:27.101Z,67.81
2023-04-25T16:12:31.903Z,69.98
2023-04-25T16:17:37.686Z,71.22
2023-04-25T16:22:43.029Z,72.75
2023-04-25T16:27:46.869Z,72.77
2023-04-25T16:32:52.153Z,71.74
2023-04-25T16:37:56.073Z,70.77
2023-04-25T16:43:00.633Z,69.97
2023-04-25T16:48:06.260Z,71.30
2023-04-25T16:53:10.299Z,71.54
2023-04-25T16:58:14.574Z,73.60
2023-04-25T17:03:20.385Z,73.77
2023-04-25T17:08:24.604Z,73.55
2023-04-25T17:13:30.706Z,73.17
2023-04-25T17:18:37.331Z,71.10
2023-04-25T17:23:45.668Z,71.19
2023-04-25T17:28:50.150Z,73.14
2023-04-25T17:33:55.941Z,73.48
2023-04-25T17:39:00.003Z,73.73
2023-04-25T17:44:04.123Z,74.55
2023-04-25T17:49:09.607Z,74.34
2023-04-25T17:54:13.547Z,76.41
2023-04-25T17:59:17.818Z,78.65
2023-04-25T18:04:23.049Z,81.75
2023-04-25T18:09:28.792Z,82.66
2023-04-25T18:14:34.295Z,85.14
2023-04-25T18:19:39.607Z,88.84
2023-04-25T18:24:44.740Z,91.21
2023-04-25T18:29:48.621Z,92.68
2023-04-25T18:34:53.966Z,96.47
2023-04-25T18:39:58.609Z,99.90
2023-04-25T18:45:03.137Z,100.00
2023-04-25T18:50:09.870Z,100.00
2023-04-25T18:55:13.936Z,100.00
2023-04-25T19:00:18.411Z,100.00
2023-04-25T19:05:23.697Z,100.00
2023-04-25T19:10:28.961Z,100.00
2023-04-25T19:15:33.496Z,100.00
2023-04-25T19:20:39.378Z,100.00
2023-04-25T19:25:43.780Z,100.00
2023-04-25T19:30:47.787Z,100.00
2023-04-25T19:35:53.105Z,100.00
2023-04-25T19:40:57.276Z,100.00
2023-04-25T19:46:01.403Z,100.00
2023-04-25T19:51:07.734Z,100.00
2023-04-25T19:56:11.945Z,100.00
2023-04-25T20:01:17.301Z,100.00
2023-04-25T20:06:23.101Z,100.00
2023-04-25T20:11:29.115Z,100.00
2023-04-25T20:16:33.056Z,100.00
2023-04-25T20:21:38.728Z,100.00
2023-04-25T20:26:42.580Z,100.00
2023-04-25T20:31:46.790Z,100.00
2023-04-25T20:36:52.917Z,100.00
2023-04-25T20:41:57.728Z,100.00
2023-04-25T20:47:02.140Z,100.00
2023-04-25T20:52:07.988Z,100.00
2023-04-25T20:57:12.213Z,100.00
2023-04-25T21:02:16.457Z,100.00
2023-04-25T21:07:21.917Z,100.00
2023-04-25T21:12:26.152Z,100.00
2023-04-25T21:17:30.425Z,100.00
2023-04-25T21:22:36.389Z,100.00
2023-04-25T21:27:40.702Z,100.00
2023-04-25T21:32:46.317Z,100.00
2023-04-25T21:37:52.627Z,100.00
2023-04-25T21:42:56.800Z,100.00
2023-04-25T21:48:00.800Z,100.00
2023-04-25T21:53:08.584Z,100.00
2023-04-25T21:58:12.461Z,100.00
2023-04-25T22:03:16.769Z,100.00
2023-04-25T22:08:22.492Z,98.79
2023-04-25T22:13:28.498Z,96.45
2023-04-25T22:18:32.698Z,96.78
2023-04-25T22:23:38.440Z,92.07
2023-04-25T22:28:42.491Z,91.18
2023-04-25T22:33:48.560Z,90.33
2023-04-25T22:38:54.809Z,89.34
2023-04-25T22:43:59.027Z,90.22
2023-04-25T22:49:02.946Z,89.49
2023-04-25T22:54:08.311Z,88.95
2023-04-25T22:59:12.174Z,90.95
2023-04-25T23:04:16.718Z,90.45
2023-04-25T23:09:22.225Z,86.96
2023-04-25T23:14:26.235Z,84.97
2023-04-25T23:19:30.187Z,87.66
2023-04-25T23:24:39.013Z,88.24
2023-04-25T23:29:43.244Z,88.94
2023-04-25T23:34:47.362Z,87.95
2023-04-25T23:39:53.373Z,87.20
2023-04-25T23:44:57.193Z,88.12
2023-04-25T23:50:01.354Z,88.70
2023-04-25T23:55:07.984Z,88.66
